Time;durP1;ratioP1;P1;durP2;ratioP2;P2;SDS_P1;SDS_P2;PMS_P1;PMS_P2;Temp;Humidity;BMP_temperature;BMP_pressure;BME280_temperature;BME280_humidity;BME280_pressure;Samples;Min_cycle;Max_cycle;Signal;HPM_P1;HPM_P2
2023/11/01 00:00:14;;;;;;;7.77;3.63;;;;;;;;;;703681;28;1906;-62
2023/11/01 00:00:35;;;;;;;6.80;3.40;;;;;;;;;;701397;28;856;-60
2023/11/01 00:00:55;;;;;;;6.60;3.38;;;;;;;;;;701183;28;2327;-61
2023/11/01 00:01:16;;;;;;;7.60;3.30;;;;;;;;;;699684;28;4310;-63
2023/11/01 00:01:36;;;;;;;8.17;3.37;;;;;;;;;;699991;28;1210;-63
2023/11/01 00:01:56;;;;;;;6.97;3.30;;;;;;;;;;702328;28;2571;-61
2023/11/01 00:02:17;;;;;;;6.73;3.10;;;;;;;;;;700269;28;1154;-62
2023/11/01 00:02:37;;;;;;;5.63;3.28;;;;;;;;;;702974;28;879;-61
2023/11/01 00:02:57;;;;;;;5.77;3.30;;;;;;;;;;701130;28;1477;-61
2023/11/01 00:03:17;;;;;;;6.93;3.47;;;;;;;;;;703046;28;1185;-62
2023/11/01 00:03:38;;;;;;;6.57;3.50;;;;;;;;;;701347;28;804;-63
2023/11/01 00:03:58;;;;;;;6.27;3.23;;;;;;;;;;700830;28;1827;-62
2023/11/01 00:04:19;;;;;;;5.23;3.13;;;;;;;;;;701756;28;4231;-61
2023/11/01 00:04:40;;;;;;;5.40;3.30;;;;;;;;;;702040;28;847;-60
2023/11/01 00:05:00;;;;;;;6.78;3.25;;;;;;;;;;702139;28;2534;-62
2023/11/01 00:05:21;;;;;;;7.03;3.40;;;;;;;;;;701557;27;809;-61
2023/11/01 00:05:41;;;;;;;6.50;3.20;;;;;;;;;;705840;27;840;-61
2023/11/01 00:06:02;;;;;;;6.22;3.30;;;;;;;;;;707438;27;1042;-62
2023/11/01 00:06:23;;;;;;;6.25;3.22;;;;;;;;;;704158;27;963;-63
2023/11/01 00:06:43;;;;;;;7.47;3.27;;;;;;;;;;704349;27;1536;-61
2023/11/01 00:07:04;;;;;;;7.63;3.78;;;;;;;;;;702848;28;4537;-63
2023/11/01 00:07:26;;;;;;;8.38;3.40;;;;;;;;;;703408;28;895;-61
2023/11/01 00:07:47;;;;;;;5.70;3.00;;;;;;;;;;701273;28;1011;-60
2023/11/01 00:08:08;;;;;;;6.50;3.22;;;;;;;;;;701419;28;1335;-62
2023/11/01 00:08:29;;;;;;;6.03;3.10;;;;;;;;;;700759;28;891;-61
2023/11/01 00:08:49;;;;;;;6.20;3.05;;;;;;;;;;702020;28;1807;-62
2023/11/01 00:09:10;;;;;;;6.53;3.20;;;;;;;;;;702799;28;1290;-62
2023/11/01 00:09:30;;;;;;;5.95;3.30;;;;;;;;;;702676;28;2274;-64
2023/11/01 00:09:51;;;;;;;5.83;3.20;;;;;;;;;;702479;27;1784;-60
2023/11/01 00:10:11;;;;;;;7.00;3.20;;;;;;;;;;704476;27;4320;-61
2023/11/01 00:10:31;;;;;;;7.83;3.53;;;;;;;;;;705117;27;740;-62
2023/11/01 00:10:52;;;;;;;8.27;3.67;;;;;;;;;;704670;27;1293;-59
2023/11/01 00:11:12;;;;;;;6.47;3.20;;;;;;;;;;705076;27;899;-61
2023/11/01 00:11:32;;;;;;;4.90;2.90;;;;;;;;;;704800;27;1197;-62
2023/11/01 00:11:53;;;;;;;5.40;3.40;;;;;;;;;;704453;27;1456;-63
2023/11/01 00:12:13;;;;;;;6.23;3.00;;;;;;;;;;705357;27;800;-61
2023/11/01 00:12:33;;;;;;;4.87;3.10;;;;;;;;;;705075;27;896;-62
2023/11/01 00:12:53;;;;;;;6.40;3.17;;;;;;;;;;701651;28;2698;-61
2023/11/01 00:13:14;;;;;;;6.75;3.20;;;;;;;;;;703551;28;4561;-61
2023/11/01 00:13:34;;;;;;;7.03;3.20;;;;;;;;;;702306;28;971;-62
2023/11/01 00:13:55;;;;;;;6.38;3.10;;;;;;;;;;702432;28;1857;-60
2023/11/01 00:14:16;;;;;;;6.97;3.20;;;;;;;;;;703585;28;875;-62
2023/11/01 00:14:36;;;;;;;6.10;3.00;;;;;;;;;;703296;27;1210;-61
2023/11/01 00:14:57;;;;;;;6.30;3.10;;;;;;;;;;701192;28;1524;-61
2023/11/01 00:15:17;;;;;;;5.78;3.00;;;;;;;;;;702335;28;983;-61
2023/11/01 00:15:38;;;;;;;6.17;3.00;;;;;;;;;;703359;28;856;-61
2023/11/01 00:15:58;;;;;;;7.20;3.20;;;;;;;;;;701395;28;2292;-61
2023/11/01 00:16:18;;;;;;;6.23;3.13;;;;;;;;;;700862;28;5186;-62
2023/11/01 00:16:39;;;;;;;8.60;3.30;;;;;;;;;;702171;27;1419;-63
2023/11/01 00:16:59;;;;;;;8.73;3.10;;;;;;;;;;704917;27;1485;-61
2023/11/01 00:17:19;;;;;;;6.28;3.00;;;;;;;;;;705178;27;833;-62
2023/11/01 00:17:39;;;;;;;7.07;3.20;;;;;;;;;;705083;27;998;-62
2023/11/01 00:18:00;;;;;;;7.10;3.17;;;;;;;;;;702812;27;1327;-63
2023/11/01 00:18:20;;;;;;;6.13;2.90;;;;;;;;;;704794;27;974;-61
2023/11/01 00:18:40;;;;;;;6.47;3.10;;;;;;;;;;705446;27;817;-62
2023/11/01 00:19:01;;;;;;;7.03;3.10;;;;;;;;;;703486;27;1456;-62
2023/11/01 00:19:21;;;;;;;7.43;3.30;;;;;;;;;;704158;27;5228;-63
2023/11/01 00:19:41;;;;;;;7.27;3.00;;;;;;;;;;704409;27;1006;-62
2023/11/01 00:20:02;;;;;;;5.70;2.93;;;;;;;;;;700839;28;1792;-60
2023/11/01 00:20:22;;;;;;;8.63;2.95;;;;;;;;;;701946;28;1905;-61
2023/11/01 00:20:43;;;;;;;7.07;3.08;;;;;;;;;;700674;28;836;-61
2023/11/01 00:21:03;;;;;;;6.77;3.40;;;;;;;;;;698188;28;1270;-62
2023/11/01 00:21:24;;;;;;;6.10;3.15;;;;;;;;;;698767;28;883;-62
2023/11/01 00:21:44;;;;;;;5.90;2.90;;;;;;;;;;697924;28;998;-62
2023/11/01 00:22:04;;;;;;;5.53;3.10;;;;;;;;;;700952;28;4483;-63
2023/11/01 00:22:24;;;;;;;7.05;3.22;;;;;;;;;;700238;28;1217;-61
2023/11/01 00:22:45;;;;;;;6.77;3.67;;;;;;;;;;702416;28;1764;-60
2023/11/01 00:23:05;;;;;;;6.80;3.23;;;;;;;;;;699944;28;1841;-62
2023/11/01 00:23:25;;;;;;;6.38;3.10;;;;;;;;;;700477;28;3447;-60
2023/11/01 00:23:45;;;;;;;6.97;3.00;;;;;;;;;;699628;28;1578;-61
2023/11/01 00:24:06;;;;;;;6.30;2.90;;;;;;;;;;701196;28;1265;-62
2023/11/01 00:24:26;;;;;;;5.63;2.90;;;;;;;;;;703882;28;788;-62
2023/11/01 00:24:47;;;;;;;6.53;2.80;;;;;;;;;;702596;28;2235;-62
2023/11/01 00:25:07;;;;;;;4.97;2.88;;;;;;;;;;704568;27;4330;-62
2023/11/01 00:25:28;;;;;;;5.03;2.97;;;;;;;;;;703093;28;1358;-62
2023/11/01 00:25:48;;;;;;;7.95;3.00;;;;;;;;;;699011;28;1824;-62
2023/11/01 00:26:08;;;;;;;7.17;2.80;;;;;;;;;;698925;28;780;-63
2023/11/01 00:26:28;;;;;;;6.90;3.10;;;;;;;;;;699735;28;883;-62
2023/11/01 00:26:49;;;;;;;7.45;3.25;;;;;;;;;;696167;28;1982;-61
2023/11/01 00:27:09;;;;;;;6.07;3.10;;;;;;;;;;695722;28;1236;-62
2023/11/01 00:27:31;;;;;;;5.30;3.10;;;;;;;;;;696700;28;1613;-61
2023/11/01 00:27:52;;;;;;;8.55;3.28;;;;;;;;;;696074;28;1455;-61
2023/11/01 00:28:12;;;;;;;7.07;3.00;;;;;;;;;;696749;28;4331;-61
2023/11/01 00:28:35;;;;;;;5.50;2.83;;;;;;;;;;696028;28;1446;-64
2023/11/01 00:28:56;;;;;;;5.68;3.08;;;;;;;;;;698175;28;1770;-60
2023/11/01 00:29:16;;;;;;;5.80;3.10;;;;;;;;;;700355;28;825;-63
2023/11/01 00:29:37;;;;;;;5.40;3.20;;;;;;;;;;699749;28;915;-63
2023/11/01 00:30:00;;;;;;;6.30;3.17;;;;;;;;;;699750;27;1430;-61
2023/11/01 00:30:20;;;;;;;6.47;3.17;;;;;;;;;;706067;27;2098;-62
2023/11/01 00:30:41;;;;;;;6.70;3.30;;;;;;;;;;704741;27;1292;-61
2023/11/01 00:31:01;;;;;;;6.03;3.10;;;;;;;;;;702462;28;2013;-61
2023/11/01 00:31:21;;;;;;;5.78;3.10;;;;;;;;;;700841;28;4295;-60
2023/11/01 00:31:41;;;;;;;6.67;3.03;;;;;;;;;;697716;28;1207;-62
2023/11/01 00:32:02;;;;;;;7.17;3.10;;;;;;;;;;696364;28;2062;-61
2023/11/01 00:32:22;;;;;;;7.43;3.13;;;;;;;;;;698306;28;1238;-61
2023/11/01 00:32:42;;;;;;;6.70;3.10;;;;;;;;;;693510;28;900;-62
2023/11/01 00:33:03;;;;;;;6.80;3.10;;;;;;;;;;692960;28;1757;-62
2023/11/01 00:33:23;;;;;;;6.30;2.90;;;;;;;;;;693846;28;835;-61
2023/11/01 00:33:43;;;;;;;7.17;3.07;;;;;;;;;;697145;28;1423;-62
2023/11/01 00:34:04;;;;;;;8.13;3.03;;;;;;;;;;695760;28;5297;-61
2023/11/01 00:34:24;;;;;;;6.70;3.08;;;;;;;;;;697813;28;789;-60
2023/11/01 00:34:44;;;;;;;7.33;2.73;;;;;;;;;;700027;28;1070;-62
2023/11/01 00:35:05;;;;;;;8.17;3.10;;;;;;;;;;703918;28;806;-62
2023/11/01 00:35:25;;;;;;;7.88;3.40;;;;;;;;;;703235;28;1301;-61
2023/11/01 00:35:46;;;;;;;8.47;3.23;;;;;;;;;;701156;27;2436;-62
2023/11/01 00:36:07;;;;;;;5.90;2.93;;;;;;;;;;699591;28;890;-60
2023/11/01 00:36:27;;;;;;;8.30;2.92;;;;;;;;;;700317;28;1030;-61
2023/11/01 00:36:48;;;;;;;6.80;2.83;;;;;;;;;;698180;28;1588;-61
2023/11/01 00:37:08;;;;;;;6.10;2.80;;;;;;;;;;696592;28;4662;-61
2023/11/01 00:37:29;;;;;;;7.47;3.00;;;;;;;;;;696802;28;963;-63
2023/11/01 00:37:49;;;;;;;7.17;2.80;;;;;;;;;;699286;28;1789;-62
2023/11/01 00:38:09;;;;;;;6.97;2.92;;;;;;;;;;701915;28;820;-63
2023/11/01 00:38:32;;;;;;;7.13;3.37;;;;;;;;;;702699;28;2845;-62
2023/11/01 00:38:52;;;;;;;7.05;3.03;;;;;;;;;;701303;27;2540;-62
2023/11/01 00:39:13;;;;;;;6.00;2.90;;;;;;;;;;701388;28;1431;-61
2023/11/01 00:39:33;;;;;;;6.63;3.13;;;;;;;;;;703100;28;859;-61
2023/11/01 00:39:53;;;;;;;6.97;3.10;;;;;;;;;;701050;28;1207;-64
2023/11/01 00:40:14;;;;;;;5.73;3.13;;;;;;;;;;702108;28;4491;-60
2023/11/01 00:40:34;;;;;;;5.18;2.85;;;;;;;;;;702913;28;1384;-61
2023/11/01 00:40:55;;;;;;;6.53;3.03;;;;;;;;;;701515;28;1869;-61
2023/11/01 00:41:15;;;;;;;7.33;3.20;;;;;;;;;;705042;27;943;-62
2023/11/01 00:41:35;;;;;;;6.67;3.20;;;;;;;;;;706260;27;1184;-61
2023/11/01 00:41:56;;;;;;;7.18;3.10;;;;;;;;;;700204;28;2620;-61
2023/11/01 00:42:17;;;;;;;6.50;2.90;;;;;;;;;;699155;28;5277;-61
2023/11/01 00:42:38;;;;;;;7.05;3.25;;;;;;;;;;699329;28;2063;-61
2023/11/01 00:42:58;;;;;;;7.03;3.03;;;;;;;;;;698945;28;1434;-60
2023/11/01 00:43:19;;;;;;;7.15;3.00;;;;;;;;;;699495;28;4733;-62
2023/11/01 00:43:39;;;;;;;6.20;3.00;;;;;;;;;;699850;28;1336;-61
2023/11/01 00:43:59;;;;;;;5.87;3.10;;;;;;;;;;701198;28;1709;-61
2023/11/01 00:44:19;;;;;;;7.53;3.38;;;;;;;;;;701980;28;875;-61
2023/11/01 00:44:40;;;;;;;6.33;2.90;;;;;;;;;;702939;28;847;-64
2023/11/01 00:45:00;;;;;;;6.07;2.57;;;;;;;;;;700695;28;1821;-61
2023/11/01 00:45:20;;;;;;;9.35;3.28;;;;;;;;;;700807;28;792;-62
2023/11/01 00:45:41;;;;;;;6.80;3.40;;;;;;;;;;698044;28;1379;-61
2023/11/01 00:46:02;;;;;;;5.80;2.97;;;;;;;;;;694305;28;1130;-61
2023/11/01 00:46:22;;;;;;;5.00;2.75;;;;;;;;;;695263;28;4663;-62
2023/11/01 00:46:42;;;;;;;5.90;3.07;;;;;;;;;;695838;28;1267;-62
2023/11/01 00:47:03;;;;;;;7.13;3.33;;;;;;;;;;693501;28;1214;-60
2023/11/01 00:47:23;;;;;;;9.13;3.47;;;;;;;;;;695419;28;988;-60
2023/11/01 00:47:43;;;;;;;8.40;3.63;;;;;;;;;;696871;28;848;-62
2023/11/01 00:48:04;;;;;;;7.73;3.53;;;;;;;;;;695257;28;1819;-62
2023/11/01 00:48:24;;;;;;;7.80;3.20;;;;;;;;;;698595;28;1147;-62
2023/11/01 00:48:45;;;;;;;7.13;2.90;;;;;;;;;;701327;28;1724;-62
2023/11/01 00:49:05;;;;;;;7.23;3.00;;;;;;;;;;701620;28;4357;-61
2023/11/01 00:49:26;;;;;;;7.50;3.13;;;;;;;;;;702878;28;895;-60
2023/11/01 00:49:46;;;;;;;7.80;3.20;;;;;;;;;;698983;28;1828;-61
2023/11/01 00:50:07;;;;;;;6.63;3.10;;;;;;;;;;700332;28;1357;-61
2023/11/01 00:50:27;;;;;;;5.87;3.13;;;;;;;;;;701027;28;857;-62
2023/11/01 00:50:48;;;;;;;6.13;2.90;;;;;;;;;;697089;28;1745;-61
2023/11/01 00:51:08;;;;;;;7.00;3.07;;;;;;;;;;697937;28;1571;-60
2023/11/01 00:51:28;;;;;;;6.63;2.90;;;;;;;;;;697708;28;1309;-63
2023/11/01 00:51:48;;;;;;;7.95;3.10;;;;;;;;;;697036;28;1171;-61
2023/11/01 00:52:09;;;;;;;6.43;3.20;;;;;;;;;;699039;28;4330;-62
2023/11/01 00:52:29;;;;;;;6.00;3.10;;;;;;;;;;696592;28;1315;-65
2023/11/01 00:52:49;;;;;;;6.05;2.80;;;;;;;;;;696197;28;2263;-61
2023/11/01 00:53:09;;;;;;;7.33;3.10;;;;;;;;;;698025;28;943;-60
2023/11/01 00:53:30;;;;;;;6.23;3.00;;;;;;;;;;696916;28;810;-60
2023/11/01 00:53:50;;;;;;;5.72;2.70;;;;;;;;;;696089;28;2503;-62
2023/11/01 00:54:10;;;;;;;5.67;2.80;;;;;;;;;;697518;28;928;-60
2023/11/01 00:54:31;;;;;;;6.13;2.90;;;;;;;;;;696653;28;1351;-62
2023/11/01 00:54:51;;;;;;;8.67;3.37;;;;;;;;;;696841;28;1330;-60
2023/11/01 00:55:12;;;;;;;6.83;3.13;;;;;;;;;;700591;28;4346;-61
2023/11/01 00:55:32;;;;;;;7.43;3.13;;;;;;;;;;701239;28;898;-62
2023/11/01 00:55:53;;;;;;;6.95;3.10;;;;;;;;;;696948;28;1775;-61
2023/11/01 00:56:13;;;;;;;7.57;3.00;;;;;;;;;;698416;28;1317;-61
2023/11/01 00:56:33;;;;;;;7.37;3.23;;;;;;;;;;698221;28;1508;-62
2023/11/01 00:56:53;;;;;;;9.20;3.37;;;;;;;;;;698821;28;1890;-61
2023/11/01 00:57:14;;;;;;;8.15;3.03;;;;;;;;;;696220;28;1496;-61
2023/11/01 00:57:34;;;;;;;5.23;2.93;;;;;;;;;;700349;28;1314;-60
2023/11/01 00:57:54;;;;;;;7.00;3.30;;;;;;;;;;701343;28;1851;-62
2023/11/01 00:58:15;;;;;;;7.57;3.15;;;;;;;;;;699229;28;4301;-61
2023/11/01 00:58:35;;;;;;;7.13;3.10;;;;;;;;;;699313;28;1337;-61
2023/11/01 00:58:56;;;;;;;7.45;3.20;;;;;;;;;;699283;28;1887;-61
2023/11/01 00:59:16;;;;;;;6.67;3.20;;;;;;;;;;700143;28;1257;-61
2023/11/01 00:59:36;;;;;;;7.77;3.40;;;;;;;;;;699560;28;849;-60
2023/11/01 00:59:56;;;;;;;7.10;3.03;;;;;;;;;;696017;28;1550;-60
2023/11/01 01:00:17;;;;;;;7.10;3.43;;;;;;;;;;697443;28;1957;-60
2023/11/01 01:00:37;;;;;;;7.60;3.10;;;;;;;;;;697566;28;936;-60
2023/11/01 01:00:57;;;;;;;7.47;3.10;;;;;;;;;;696741;28;1683;-61
2023/11/01 01:01:17;;;;;;;6.70;2.90;;;;;;;;;;700484;28;4496;-63
2023/11/01 01:01:38;;;;;;;8.93;3.17;;;;;;;;;;701028;28;947;-62
2023/11/01 01:01:58;;;;;;;8.02;3.15;;;;;;;;;;701087;28;1566;-63
2023/11/01 01:02:18;;;;;;;6.67;3.10;;;;;;;;;;702766;28;773;-62
2023/11/01 01:02:38;;;;;;;6.40;2.93;;;;;;;;;;701100;28;1206;-61
2023/11/01 01:02:59;;;;;;;5.50;3.07;;;;;;;;;;698915;28;1747;-62
2023/11/01 01:03:19;;;;;;;6.07;3.10;;;;;;;;;;699704;28;1397;-62
2023/11/01 01:03:39;;;;;;;5.73;3.00;;;;;;;;;;699030;28;962;-62
2023/11/01 01:04:00;;;;;;;7.07;3.00;;;;;;;;;;696637;28;998;-61
2023/11/01 01:04:20;;;;;;;6.10;3.10;;;;;;;;;;698435;28;4478;-62
2023/11/01 01:04:45;;;;;;;6.82;3.28;;;;;;;;;;699826;28;871;-61
2023/11/01 01:05:05;;;;;;;5.68;3.10;;;;;;;;;;702430;28;1797;-62
2023/11/01 01:05:26;;;;;;;5.82;3.30;;;;;;;;;;700792;28;1442;-62
2023/11/01 01:05:46;;;;;;;7.67;3.27;;;;;;;;;;698761;28;1977;-61
2023/11/01 01:06:06;;;;;;;7.07;2.90;;;;;;;;;;696968;28;1417;-62
2023/11/01 01:06:27;;;;;;;6.87;2.93;;;;;;;;;;697642;28;920;-61
2023/11/01 01:06:47;;;;;;;5.30;3.00;;;;;;;;;;694503;28;1797;-63
2023/11/01 01:07:07;;;;;;;5.27;3.10;;;;;;;;;;694881;28;4527;-62
2023/11/01 01:07:27;;;;;;;6.07;3.13;;;;;;;;;;697966;28;1231;-62
2023/11/01 01:07:48;;;;;;;6.23;3.13;;;;;;;;;;697743;28;1497;-63
2023/11/01 01:08:08;;;;;;;6.60;3.20;;;;;;;;;;698257;28;1334;-63
2023/11/01 01:08:28;;;;;;;6.60;3.13;;;;;;;;;;698054;28;1033;-63
2023/11/01 01:08:49;;;;;;;6.10;2.90;;;;;;;;;;699712;28;1200;-62
2023/11/01 01:09:12;;;;;;;6.10;2.93;;;;;;;;;;700116;28;887;-62
2023/11/01 01:09:32;;;;;;;7.47;2.83;;;;;;;;;;700881;28;1522;-63
2023/11/01 01:09:52;;;;;;;7.10;3.10;;;;;;;;;;701850;27;2356;-61
2023/11/01 01:10:13;;;;;;;6.63;3.10;;;;;;;;;;698032;28;4604;-62
2023/11/01 01:10:33;;;;;;;7.28;2.70;;;;;;;;;;699917;28;935;-61
2023/11/01 01:10:53;;;;;;;7.40;3.07;;;;;;;;;;695963;28;2539;-63
2023/11/01 01:11:13;;;;;;;6.07;3.03;;;;;;;;;;695114;28;845;-61
2023/11/01 01:11:34;;;;;;;5.85;2.78;;;;;;;;;;690521;28;1082;-62
2023/11/01 01:11:54;;;;;;;7.23;3.10;;;;;;;;;;690288;28;2312;-61
2023/11/01 01:12:14;;;;;;;5.70;3.07;;;;;;;;;;692812;28;821;-61
2023/11/01 01:12:35;;;;;;;5.50;3.00;;;;;;;;;;690985;28;1353;-63
2023/11/01 01:12:55;;;;;;;5.83;2.97;;;;;;;;;;692760;28;2146;-60
2023/11/01 01:13:15;;;;;;;5.83;2.60;;;;;;;;;;695806;28;4400;-61
2023/11/01 01:13:36;;;;;;;6.00;2.80;;;;;;;;;;693341;28;1220;-63
2023/11/01 01:13:56;;;;;;;6.00;2.97;;;;;;;;;;692741;28;2214;-62
2023/11/01 01:14:17;;;;;;;6.33;2.90;;;;;;;;;;694984;28;1344;-60
2023/11/01 01:14:37;;;;;;;5.78;2.80;;;;;;;;;;698078;28;2038;-62
2023/11/01 01:14:58;;;;;;;6.00;2.60;;;;;;;;;;691206;28;2395;-61
2023/11/01 01:15:18;;;;;;;5.87;2.60;;;;;;;;;;695354;28;797;-61
2023/11/01 01:15:38;;;;;;;5.82;2.70;;;;;;;;;;693958;28;1452;-62
2023/11/01 01:15:58;;;;;;;5.10;2.60;;;;;;;;;;693626;28;1736;-60
2023/11/01 01:16:19;;;;;;;6.53;2.90;;;;;;;;;;692001;28;4372;-62
2023/11/01 01:16:40;;;;;;;7.75;2.90;;;;;;;;;;692581;28;1215;-62
2023/11/01 01:17:00;;;;;;;5.93;2.60;;;;;;;;;;694208;28;1081;-62
2023/11/01 01:17:20;;;;;;;6.63;2.70;;;;;;;;;;693935;28;1280;-63
2023/11/01 01:17:41;;;;;;;6.13;2.63;;;;;;;;;;696238;28;987;-63
2023/11/01 01:18:01;;;;;;;6.90;3.03;;;;;;;;;;695648;28;1873;-63
2023/11/01 01:18:21;;;;;;;6.83;3.10;;;;;;;;;;699510;28;1162;-63
2023/11/01 01:18:42;;;;;;;5.10;2.73;;;;;;;;;;699964;28;1223;-61
2023/11/01 01:19:03;;;;;;;5.95;2.88;;;;;;;;;;695055;28;1510;-61
2023/11/01 01:19:23;;;;;;;6.13;2.72;;;;;;;;;;697838;28;4735;-61
2023/11/01 01:19:44;;;;;;;6.90;2.90;;;;;;;;;;697866;28;3424;-64
2023/11/01 01:20:04;;;;;;;6.83;2.83;;;;;;;;;;695291;28;2387;-62
2023/11/01 01:20:24;;;;;;;7.25;3.13;;;;;;;;;;695166;28;1898;-62
2023/11/01 01:20:45;;;;;;;5.90;2.80;;;;;;;;;;697455;28;1328;-62
2023/11/01 01:21:05;;;;;;;5.77;2.83;;;;;;;;;;697943;28;1697;-61
2023/11/01 01:21:25;;;;;;;5.93;2.90;;;;;;;;;;698626;28;888;-62
2023/11/01 01:21:46;;;;;;;6.75;2.72;;;;;;;;;;698739;28;1188;-62
2023/11/01 01:22:06;;;;;;;5.83;2.57;;;;;;;;;;698286;28;4362;-62
2023/11/01 01:22:26;;;;;;;6.33;2.80;;;;;;;;;;700101;28;1133;-62
2023/11/01 01:22:46;;;;;;;6.07;3.03;;;;;;;;;;700902;28;769;-62
2023/11/01 01:23:07;;;;;;;5.90;2.97;;;;;;;;;;697664;28;1424;-63
2023/11/01 01:23:28;;;;;;;5.95;2.85;;;;;;;;;;698017;28;966;-63
2023/11/01 01:23:48;;;;;;;6.27;2.80;;;;;;;;;;698415;28;1064;-62
2023/11/01 01:24:08;;;;;;;5.00;2.58;;;;;;;;;;698347;28;1844;-61
2023/11/01 01:24:29;;;;;;;5.90;3.00;;;;;;;;;;702793;28;808;-61
2023/11/01 01:24:49;;;;;;;6.97;3.30;;;;;;;;;;698016;28;2036;-62
2023/11/01 01:25:10;;;;;;;7.93;3.00;;;;;;;;;;698675;28;4522;-62
2023/11/01 01:25:30;;;;;;;7.25;2.88;;;;;;;;;;701976;28;1281;-61
2023/11/01 01:25:51;;;;;;;6.70;2.70;;;;;;;;;;701453;28;1465;-61
2023/11/01 01:26:11;;;;;;;6.32;2.72;;;;;;;;;;700976;28;1645;-61
2023/11/01 01:26:31;;;;;;;6.87;2.90;;;;;;;;;;698313;28;1300;-62
2023/11/01 01:26:52;;;;;;;6.53;2.90;;;;;;;;;;697045;28;1728;-61
2023/11/01 01:27:12;;;;;;;5.43;2.70;;;;;;;;;;697677;28;1299;-62
2023/11/01 01:27:32;;;;;;;4.90;2.80;;;;;;;;;;699175;28;742;-61
2023/11/01 01:27:52;;;;;;;5.68;2.67;;;;;;;;;;701703;28;1778;-62
2023/11/01 01:28:13;;;;;;;5.23;2.80;;;;;;;;;;705520;27;4332;-61
2023/11/01 01:28:33;;;;;;;6.90;3.87;;;;;;;;;;701999;28;1250;-62
2023/11/01 01:28:53;;;;;;;6.32;3.22;;;;;;;;;;701015;28;1483;-62
2023/11/01 01:29:14;;;;;;;7.30;2.97;;;;;;;;;;703475;28;970;-62
2023/11/01 01:29:34;;;;;;;7.73;2.93;;;;;;;;;;699138;28;1164;-62
2023/11/01 01:29:54;;;;;;;6.28;2.60;;;;;;;;;;698546;28;1800;-62
2023/11/01 01:30:15;;;;;;;5.97;2.60;;;;;;;;;;699345;28;1270;-63
2023/11/01 01:30:35;;;;;;;6.43;3.00;;;;;;;;;;701782;28;881;-61
2023/11/01 01:30:55;;;;;;;7.10;3.08;;;;;;;;;;699199;28;1997;-60
2023/11/01 01:31:15;;;;;;;6.20;2.87;;;;;;;;;;699804;28;4518;-61
2023/11/01 01:31:36;;;;;;;5.63;2.80;;;;;;;;;;695270;28;797;-61
2023/11/01 01:31:56;;;;;;;6.95;2.80;;;;;;;;;;692768;28;2304;-61
2023/11/01 01:32:16;;;;;;;6.77;2.70;;;;;;;;;;694959;28;1352;-63
2023/11/01 01:32:37;;;;;;;7.07;2.60;;;;;;;;;;692517;28;908;-61
2023/11/01 01:32:57;;;;;;;5.82;2.63;;;;;;;;;;694112;28;1863;-60
2023/11/01 01:33:17;;;;;;;6.00;2.70;;;;;;;;;;694503;28;1137;-61
2023/11/01 01:33:38;;;;;;;6.72;2.78;;;;;;;;;;695071;28;1293;-63
2023/11/01 01:33:58;;;;;;;5.50;2.50;;;;;;;;;;698239;28;1771;-64
2023/11/01 01:34:19;;;;;;;6.23;2.47;;;;;;;;;;702584;28;4398;-62
2023/11/01 01:34:39;;;;;;;5.75;2.60;;;;;;;;;;703614;28;2027;-62
2023/11/01 01:34:59;;;;;;;6.27;2.50;;;;;;;;;;702609;27;2494;-62
2023/11/01 01:35:20;;;;;;;7.78;2.70;;;;;;;;;;705046;27;836;-62
2023/11/01 01:35:41;;;;;;;5.88;2.60;;;;;;;;;;702338;28;1515;-60
2023/11/01 01:36:01;;;;;;;7.57;2.87;;;;;;;;;;701906;28;1420;-62
2023/11/01 01:36:21;;;;;;;6.43;2.58;;;;;;;;;;703934;28;852;-62
2023/11/01 01:36:42;;;;;;;7.63;2.70;;;;;;;;;;703640;28;1320;-62
2023/11/01 01:37:02;;;;;;;6.87;2.90;;;;;;;;;;700156;28;1884;-62
2023/11/01 01:37:22;;;;;;;6.18;2.92;;;;;;;;;;700726;28;4327;-62
2023/11/01 01:37:43;;;;;;;6.87;2.50;;;;;;;;;;702395;28;1053;-63
2023/11/01 01:38:03;;;;;;;6.50;2.50;;;;;;;;;;698225;28;1802;-61
2023/11/01 01:38:24;;;;;;;5.40;2.67;;;;;;;;;;697772;28;1345;-62
2023/11/01 01:38:44;;;;;;;6.80;2.90;;;;;;;;;;695615;28;1533;-64
2023/11/01 01:39:04;;;;;;;6.00;2.67;;;;;;;;;;696843;28;2281;-63
2023/11/01 01:39:25;;;;;;;5.73;2.67;;;;;;;;;;697482;28;769;-62
2023/11/01 01:39:45;;;;;;;5.82;2.30;;;;;;;;;;695403;28;1502;-62
2023/11/01 01:40:06;;;;;;;7.07;2.50;;;;;;;;;;692685;28;4424;-63
2023/11/01 01:40:26;;;;;;;6.95;2.60;;;;;;;;;;699513;28;1981;-64
2023/11/01 01:40:47;;;;;;;7.18;2.33;;;;;;;;;;702362;28;844;-62
2023/11/01 01:41:07;;;;;;;5.53;2.40;;;;;;;;;;696040;28;1798;-63
2023/11/01 01:41:27;;;;;;;5.53;2.60;;;;;;;;;;698599;28;1127;-62
2023/11/01 01:41:48;;;;;;;7.72;2.40;;;;;;;;;;701239;28;872;-62
2023/11/01 01:42:08;;;;;;;8.17;2.50;;;;;;;;;;701215;28;1756;-63
2023/11/01 01:42:28;;;;;;;6.73;2.47;;;;;;;;;;700637;28;915;-61
2023/11/01 01:42:48;;;;;;;6.00;2.40;;;;;;;;;;701174;28;855;-63
2023/11/01 01:43:18;;;;;;;7.20;2.67;;;;;;;;;;701406;28;4365;-61
2023/11/01 01:43:39;;;;;;;5.82;2.40;;;;;;;;;;703371;28;947;-62
2023/11/01 01:43:59;;;;;;;6.03;2.37;;;;;;;;;;701986;28;2345;-63
2023/11/01 01:44:19;;;;;;;5.17;2.43;;;;;;;;;;698940;28;1642;-61
2023/11/01 01:44:39;;;;;;;5.90;2.43;;;;;;;;;;700658;28;1328;-61
2023/11/01 01:45:00;;;;;;;6.27;2.47;;;;;;;;;;698970;28;2167;-62
2023/11/01 01:45:20;;;;;;;5.73;2.40;;;;;;;;;;700209;28;1027;-63
2023/11/01 01:45:40;;;;;;;7.57;2.30;;;;;;;;;;700099;28;1101;-64
2023/11/01 01:46:01;;;;;;;7.17;2.37;;;;;;;;;;698847;28;1292;-62
2023/11/01 01:46:22;;;;;;;7.00;2.73;;;;;;;;;;700842;28;4317;-61
2023/11/01 01:46:42;;;;;;;7.00;2.75;;;;;;;;;;699922;28;1059;-61
2023/11/01 01:47:03;;;;;;;5.50;2.57;;;;;;;;;;698330;28;2141;-62
2023/11/01 01:47:24;;;;;;;6.10;2.55;;;;;;;;;;703060;28;1225;-61
2023/11/01 01:47:44;;;;;;;7.07;2.45;;;;;;;;;;703167;28;877;-62
2023/11/01 01:48:05;;;;;;;5.95;2.35;;;;;;;;;;702048;28;1482;-62
2023/11/01 01:48:25;;;;;;;4.90;2.40;;;;;;;;;;701379;28;738;-62
2023/11/01 01:48:46;;;;;;;7.00;2.20;;;;;;;;;;705883;27;785;-62
2023/11/01 01:49:06;;;;;;;7.32;2.95;;;;;;;;;;703160;27;4274;-61
2023/11/01 01:49:26;;;;;;;5.43;2.60;;;;;;;;;;704908;27;1249;-63
2023/11/01 01:49:47;;;;;;;5.45;2.42;;;;;;;;;;702466;28;999;-64
2023/11/01 01:50:09;;;;;;;6.40;2.73;;;;;;;;;;701175;28;2247;-62
2023/11/01 01:50:29;;;;;;;6.78;2.63;;;;;;;;;;697972;28;836;-63
2023/11/01 01:50:49;;;;;;;5.40;2.40;;;;;;;;;;699744;28;1349;-61
2023/11/01 01:51:10;;;;;;;5.95;2.40;;;;;;;;;;698556;28;2402;-61
2023/11/01 01:51:31;;;;;;;5.97;2.40;;;;;;;;;;695679;28;1467;-62
2023/11/01 01:51:52;;;;;;;6.43;2.67;;;;;;;;;;694832;28;2350;-63
2023/11/01 01:52:12;;;;;;;6.10;2.70;;;;;;;;;;697644;28;4456;-62
2023/11/01 01:52:33;;;;;;;6.03;2.27;;;;;;;;;;697956;28;1272;-63
2023/11/01 01:52:53;;;;;;;6.95;2.50;;;;;;;;;;699136;28;1883;-62
2023/11/01 01:53:13;;;;;;;6.57;2.43;;;;;;;;;;698351;28;880;-63
2023/11/01 01:53:37;;;;;;;5.50;2.20;;;;;;;;;;696473;28;883;-63
2023/11/01 01:53:58;;;;;;;5.32;2.40;;;;;;;;;;695585;28;1971;-61
2023/11/01 01:54:18;;;;;;;6.72;2.50;;;;;;;;;;697251;28;956;-62
2023/11/01 01:54:39;;;;;;;7.50;3.00;;;;;;;;;;700796;28;1210;-63
2023/11/01 01:55:00;;;;;;;6.90;3.55;;;;;;;;;;699299;28;1426;-62
2023/11/01 01:55:20;;;;;;;5.07;2.30;;;;;;;;;;699693;28;4286;-62
2023/11/01 01:55:41;;;;;;;4.67;2.20;;;;;;;;;;702609;27;1433;-63
2023/11/01 01:56:01;;;;;;;5.18;2.28;;;;;;;;;;699220;28;1839;-62
2023/11/01 01:56:22;;;;;;;4.68;2.47;;;;;;;;;;699614;28;1377;-62
2023/11/01 01:56:42;;;;;;;4.63;2.50;;;;;;;;;;699483;28;1269;-64
2023/11/01 01:57:02;;;;;;;4.77;2.53;;;;;;;;;;694744;28;2245;-62
2023/11/01 01:57:29;;;;;;;5.53;2.45;;;;;;;;;;695454;28;1395;-62
2023/11/01 01:57:50;;;;;;;4.93;2.40;;;;;;;;;;697151;28;1323;-62
2023/11/01 01:58:10;;;;;;;5.03;2.40;;;;;;;;;;696426;28;4421;-62
2023/11/01 01:58:31;;;;;;;5.55;2.30;;;;;;;;;;700642;28;1005;-62
2023/11/01 01:58:52;;;;;;;6.50;2.40;;;;;;;;;;697878;28;727;-63
2023/11/01 01:59:13;;;;;;;5.72;2.30;;;;;;;;;;700355;28;963;-62
2023/11/01 01:59:33;;;;;;;5.03;2.30;;;;;;;;;;697334;28;1305;-62
2023/11/01 01:59:54;;;;;;;5.43;2.33;;;;;;;;;;692720;28;2342;-63
2023/11/01 02:00:14;;;;;;;5.23;2.30;;;;;;;;;;696466;28;1912;-60
2023/11/01 02:00:35;;;;;;;5.30;2.10;;;;;;;;;;694028;28;2114;-62
2023/11/01 02:00:55;;;;;;;5.70;2.20;;;;;;;;;;693676;28;1750;-63
2023/11/01 02:01:16;;;;;;;5.20;2.40;;;;;;;;;;691657;28;4354;-62
2023/11/01 02:01:38;;;;;;;5.82;3.05;;;;;;;;;;692684;28;1379;-62
2023/11/01 02:01:59;;;;;;;7.05;2.75;;;;;;;;;;693496;28;2064;-62
2023/11/01 02:02:20;;;;;;;5.47;2.30;;;;;;;;;;695572;28;2880;-62
2023/11/01 02:02:42;;;;;;;4.35;2.10;;;;;;;;;;697926;28;1002;-63
2023/11/01 02:03:02;;;;;;;6.07;2.30;;;;;;;;;;693692;28;1771;-62
2023/11/01 02:03:23;;;;;;;6.40;2.37;;;;;;;;;;695734;28;1207;-63
2023/11/01 02:03:44;;;;;;;5.28;2.25;;;;;;;;;;694136;28;1534;-61
2023/11/01 02:04:04;;;;;;;4.13;2.10;;;;;;;;;;693746;28;4589;-62
2023/11/01 02:04:26;;;;;;;4.27;2.10;;;;;;;;;;689394;28;1426;-62
2023/11/01 02:04:48;;;;;;;5.18;2.40;;;;;;;;;;690032;28;996;-61
2023/11/01 02:05:09;;;;;;;5.93;2.38;;;;;;;;;;692944;28;1624;-61
2023/11/01 02:05:30;;;;;;;6.63;2.20;;;;;;;;;;692814;28;1248;-61
2023/11/01 02:05:51;;;;;;;6.88;2.22;;;;;;;;;;693386;28;917;-61
2023/11/01 02:06:11;;;;;;;7.30;2.67;;;;;;;;;;694145;28;1839;-63
2023/11/01 02:06:31;;;;;;;4.70;2.40;;;;;;;;;;700436;28;1281;-62
2023/11/01 02:06:51;;;;;;;6.43;2.40;;;;;;;;;;700289;28;778;-64
2023/11/01 02:07:12;;;;;;;7.00;2.30;;;;;;;;;;699086;28;4335;-63
2023/11/01 02:07:33;;;;;;;5.65;2.28;;;;;;;;;;700694;28;1395;-62